createdAt,value
2023-07-19T00:01:46.312Z,2.50
2023-07-19T00:04:14.707Z,2.40
2023-07-19T00:06:43.100Z,2.40
2023-07-19T00:09:11.400Z,2.60
2023-07-19T00:11:39.676Z,2.60
2023-07-19T00:14:08.627Z,2.50
2023-07-19T00:16:36.927Z,2.60
2023-07-19T00:19:18.706Z,2.50
2023-07-19T00:21:49.759Z,2.30
2023-07-19T00:24:18.324Z,2.40
2023-07-19T00:26:46.775Z,2.70
2023-07-19T00:29:15.115Z,2.60
2023-07-19T00:31:44.003Z,2.60
2023-07-19T00:34:12.249Z,2.70
2023-07-19T00:36:40.645Z,2.50
2023-07-19T00:39:08.896Z,2.50
2023-07-19T00:41:37.310Z,2.60
2023-07-19T00:44:06.022Z,2.20
2023-07-19T00:46:35.989Z,2.90
2023-07-19T00:49:04.605Z,2.50
2023-07-19T00:51:33.117Z,2.20
2023-07-19T00:54:02.016Z,2.30
2023-07-19T00:56:31.314Z,2.20
2023-07-19T00:59:01.064Z,2.20
2023-07-19T01:01:29.408Z,2.20
2023-07-19T01:03:57.804Z,2.40
2023-07-19T01:06:26.290Z,2.40
2023-07-19T01:08:54.628Z,2.50
2023-07-19T01:11:23.109Z,2.50
2023-07-19T01:13:56.343Z,2.30
2023-07-19T01:16:24.742Z,2.50
2023-07-19T01:18:53.087Z,2.80
2023-07-19T01:21:24.638Z,2.50
2023-07-19T01:23:54.911Z,2.50
2023-07-19T01:26:23.236Z,2.40
2023-07-19T01:28:51.522Z,2.60
2023-07-19T01:31:20.109Z,2.50
2023-07-19T01:33:48.641Z,2.50
2023-07-19T01:36:16.955Z,2.40
2023-07-19T01:38:45.262Z,2.50
2023-07-19T01:41:13.560Z,2.50
2023-07-19T01:43:41.931Z,2.60
2023-07-19T01:46:10.548Z,2.70
2023-07-19T01:48:39.312Z,2.60
2023-07-19T01:51:07.780Z,2.40
2023-07-19T01:53:36.380Z,2.80
2023-07-19T01:56:04.933Z,2.70
2023-07-19T01:58:33.182Z,2.50
2023-07-19T02:01:01.893Z,2.70
2023-07-19T02:03:30.294Z,2.70
2023-07-19T02:06:02.220Z,2.60
2023-07-19T02:08:30.563Z,2.50
2023-07-19T02:10:58.808Z,2.70
2023-07-19T02:13:27.145Z,2.60
2023-07-19T02:15:55.449Z,2.60
2023-07-19T02:18:23.858Z,2.70
2023-07-19T02:20:55.354Z,2.90
2023-07-19T02:23:24.806Z,2.60
2023-07-19T02:25:53.153Z,2.80
2023-07-19T02:28:21.405Z,2.50
2023-07-19T02:30:49.969Z,2.90
2023-07-19T02:33:18.601Z,2.70
2023-07-19T02:35:56.325Z,2.70
2023-07-19T02:38:27.198Z,2.80
2023-07-19T02:41:02.529Z,2.70
2023-07-19T02:43:31.492Z,2.80
2023-07-19T02:45:59.750Z,2.60
2023-07-19T02:48:28.025Z,3.10
2023-07-19T02:50:58.744Z,2.70
2023-07-19T02:53:27.137Z,2.50
2023-07-19T02:55:55.427Z,2.60
2023-07-19T02:58:24.492Z,2.60
2023-07-19T03:00:54.780Z,2.60
2023-07-19T03:03:23.320Z,2.40
2023-07-19T03:05:51.800Z,3.00
2023-07-19T03:08:20.130Z,2.60
2023-07-19T03:10:53.959Z,2.60
2023-07-19T03:13:22.301Z,2.60
2023-07-19T03:15:50.692Z,2.70
2023-07-19T03:18:19.080Z,2.60
2023-07-19T03:20:47.346Z,2.80
2023-07-19T03:23:15.666Z,2.50
2023-07-19T03:25:43.921Z,2.70
2023-07-19T03:28:12.172Z,2.90
2023-07-19T03:30:40.521Z,2.80
2023-07-19T03:33:08.929Z,2.70
2023-07-19T03:35:37.159Z,2.30
2023-07-19T03:38:05.423Z,2.50
2023-07-19T03:40:33.713Z,2.60
2023-07-19T03:43:02.039Z,2.90
2023-07-19T03:45:30.223Z,2.90
2023-07-19T03:47:58.598Z,2.30
2023-07-19T03:50:27.782Z,2.90
2023-07-19T03:52:56.019Z,2.70
2023-07-19T03:55:24.462Z,2.30
2023-07-19T03:57:52.841Z,2.70
2023-07-19T04:00:21.393Z,2.70
2023-07-19T04:02:49.957Z,2.70
2023-07-19T04:05:18.665Z,2.80
2023-07-19T04:07:47.064Z,2.70
2023-07-19T04:10:15.463Z,2.40
2023-07-19T04:12:43.766Z,2.60
2023-07-19T04:15:12.100Z,2.50
2023-07-19T04:17:40.429Z,2.80
2023-07-19T04:20:09.942Z,3.00
2023-07-19T04:22:38.255Z,2.60
2023-07-19T04:25:07.642Z,2.70
2023-07-19T04:27:35.868Z,2.60
2023-07-19T04:30:05.229Z,2.40
2023-07-19T04:32:33.688Z,2.40
2023-07-19T04:35:02.219Z,2.50
2023-07-19T04:37:30.483Z,2.70
2023-07-19T04:39:59.149Z,2.80
2023-07-19T04:42:28.407Z,2.50
2023-07-19T04:44:56.655Z,2.50
2023-07-19T04:47:24.936Z,2.50
2023-07-19T04:49:53.278Z,3.00
2023-07-19T04:52:21.593Z,2.60
2023-07-19T04:54:50.190Z,2.60
2023-07-19T04:57:18.523Z,2.50
2023-07-19T04:59:46.759Z,2.50
2023-07-19T05:02:15.039Z,2.40
2023-07-19T05:04:43.926Z,2.50
2023-07-19T05:07:12.217Z,2.70
2023-07-19T05:09:40.490Z,2.40
2023-07-19T05:12:10.111Z,2.50
2023-07-19T05:17:07.078Z,2.60
2023-07-19T05:19:35.427Z,2.90
2023-07-19T05:22:03.712Z,2.90
2023-07-19T05:24:32.267Z,2.50
2023-07-19T05:27:01.472Z,2.70
2023-07-19T05:29:30.054Z,3.20
2023-07-19T05:31:58.571Z,3.00
2023-07-19T05:34:26.973Z,2.90
2023-07-19T05:36:55.275Z,2.90
2023-07-19T05:39:23.962Z,2.90
2023-07-19T05:41:52.195Z,3.40
2023-07-19T05:44:20.420Z,3.20
2023-07-19T05:46:48.821Z,3.30
2023-07-19T05:49:17.357Z,3.00
2023-07-19T05:51:46.245Z,3.40
2023-07-19T05:54:15.484Z,2.90
2023-07-19T05:56:43.835Z,3.20
2023-07-19T05:59:12.556Z,2.90
2023-07-19T06:01:40.868Z,2.90
2023-07-19T06:04:10.808Z,2.80
2023-07-19T06:06:39.106Z,3.20
2023-07-19T06:09:07.392Z,3.10
2023-07-19T06:11:36.848Z,3.10
2023-07-19T06:14:05.305Z,2.80
2023-07-19T06:16:33.677Z,3.10
2023-07-19T06:19:02.067Z,3.10
2023-07-19T06:21:32.830Z,3.10
2023-07-19T06:24:02.709Z,3.20
2023-07-19T06:26:31.259Z,3.20
2023-07-19T06:28:59.549Z,3.10
2023-07-19T06:31:27.827Z,3.00
2023-07-19T06:33:56.919Z,2.70
2023-07-19T06:36:25.524Z,3.20
2023-07-19T06:38:54.011Z,3.20
2023-07-19T06:41:22.672Z,3.40
2023-07-19T06:43:51.326Z,2.80
2023-07-19T06:46:19.684Z,3.50
2023-07-19T06:48:48.281Z,3.00
2023-07-19T06:51:16.562Z,3.00
2023-07-19T06:53:45.310Z,3.10
2023-07-19T06:56:13.709Z,3.30
2023-07-19T06:58:42.020Z,3.40
2023-07-19T07:01:10.383Z,3.30
2023-07-19T07:03:38.717Z,3.10
2023-07-19T07:06:07.208Z,3.10
2023-07-19T07:08:36.052Z,2.90
2023-07-19T07:11:05.638Z,2.70
2023-07-19T07:13:33.914Z,2.70
2023-07-19T07:16:02.829Z,2.70
2023-07-19T07:18:31.150Z,3.20
2023-07-19T07:20:59.368Z,2.70
2023-07-19T07:23:27.789Z,2.70
2023-07-19T07:25:56.444Z,2.60
2023-07-19T07:28:24.793Z,2.50
2023-07-19T07:30:53.090Z,2.40
2023-07-19T07:33:21.491Z,2.50
2023-07-19T07:35:49.668Z,2.30
2023-07-19T07:38:17.918Z,2.60
2023-07-19T07:40:46.253Z,2.60
2023-07-19T07:43:14.451Z,2.60
2023-07-19T07:45:43.006Z,2.40
2023-07-19T07:48:11.878Z,2.70
2023-07-19T07:50:40.216Z,2.60
2023-07-19T07:53:13.077Z,2.70
2023-07-19T07:55:43.728Z,2.60
2023-07-19T07:58:12.552Z,2.90
2023-07-19T08:00:42.577Z,2.50
2023-07-19T08:03:11.661Z,2.40
2023-07-19T08:05:40.184Z,2.40
2023-07-19T08:08:09.146Z,2.60
2023-07-19T08:10:42.120Z,2.20
2023-07-19T08:13:11.638Z,2.00
2023-07-19T08:15:40.057Z,2.80
2023-07-19T08:18:08.459Z,2.50
2023-07-19T08:20:36.847Z,2.40
2023-07-19T08:23:05.158Z,2.30
2023-07-19T08:25:35.854Z,2.70
2023-07-19T08:28:04.531Z,2.20
2023-07-19T08:30:34.057Z,2.40
2023-07-19T08:35:37.406Z,2.10
2023-07-19T08:38:05.839Z,2.10
2023-07-19T08:40:42.801Z,2.00
2023-07-19T08:43:14.185Z,2.20
2023-07-19T08:45:46.253Z,2.20
2023-07-19T08:48:33.338Z,2.30
2023-07-19T08:51:29.080Z,2.60
2023-07-19T08:59:53.221Z,2.10
2023-07-19T09:02:29.290Z,1.70
2023-07-19T09:05:11.708Z,1.80
2023-07-19T09:10:53.418Z,1.90
2023-07-19T09:16:42.369Z,2.20
2023-07-19T09:19:14.062Z,2.10
2023-07-19T09:21:45.532Z,2.10
2023-07-19T09:24:16.662Z,1.90
2023-07-19T09:27:01.883Z,1.70
2023-07-19T09:30:02.373Z,2.00
2023-07-19T09:32:42.919Z,1.80
2023-07-19T09:35:18.308Z,2.00
2023-07-19T09:37:48.433Z,2.00
2023-07-19T09:40:16.933Z,1.90
2023-07-19T09:42:46.071Z,1.90
2023-07-19T09:45:15.475Z,1.70
2023-07-19T09:47:45.513Z,1.60
2023-07-19T09:50:14.181Z,1.90
2023-07-19T09:52:59.866Z,1.90
2023-07-19T09:55:29.886Z,1.90
2023-07-19T10:00:27.368Z,1.80
2023-07-19T10:02:56.084Z,1.90
2023-07-19T10:05:31.259Z,1.90
2023-07-19T10:08:05.361Z,1.80
2023-07-19T10:10:41.516Z,2.20
2023-07-19T10:13:11.829Z,2.10
2023-07-19T10:15:41.510Z,1.80
2023-07-19T10:20:44.317Z,2.20
2023-07-19T10:23:16.220Z,2.10
2023-07-19T10:25:50.361Z,2.40
2023-07-19T10:28:31.948Z,2.30
2023-07-19T10:31:28.180Z,2.00
2023-07-19T10:33:58.040Z,1.90
2023-07-19T10:36:26.694Z,2.00
2023-07-19T10:38:55.386Z,2.20
2023-07-19T10:41:23.817Z,2.00
2023-07-19T10:43:54.695Z,1.90
2023-07-19T10:46:24.321Z,1.70
2023-07-19T10:48:53.422Z,1.50
2023-07-19T10:51:22.763Z,1.90
2023-07-19T10:54:00.747Z,1.90
2023-07-19T10:56:30.469Z,1.90
2023-07-19T10:59:01.171Z,1.80
2023-07-19T11:01:31.473Z,1.80
2023-07-19T11:04:06.389Z,1.60
2023-07-19T11:06:40.053Z,1.80
2023-07-19T11:09:09.972Z,1.90
2023-07-19T11:11:40.025Z,1.50
2023-07-19T11:14:08.882Z,1.70
2023-07-19T11:16:37.495Z,1.90
2023-07-19T11:19:05.814Z,1.90
2023-07-19T11:21:34.336Z,2.00
2023-07-19T11:24:04.117Z,2.80
2023-07-19T11:26:32.582Z,1.90
2023-07-19T11:29:01.173Z,1.90
2023-07-19T11:31:39.887Z,2.10
2023-07-19T11:34:16.125Z,1.90
2023-07-19T11:36:46.803Z,1.70
2023-07-19T11:39:22.170Z,1.90
2023-07-19T11:41:51.058Z,1.60
2023-07-19T11:44:23.856Z,1.70
2023-07-19T11:46:54.477Z,1.70
2023-07-19T11:49:23.001Z,2.10
2023-07-19T11:51:53.991Z,2.10
2023-07-19T11:54:22.408Z,2.10
2023-07-19T11:56:50.761Z,2.00
2023-07-19T11:59:19.608Z,1.90
2023-07-19T12:01:48.595Z,2.20
2023-07-19T12:04:17.396Z,2.00
2023-07-19T12:06:45.741Z,2.40
2023-07-19T12:09:14.578Z,2.10
2023-07-19T12:11:43.037Z,2.20
2023-07-19T12:14:11.411Z,2.00
2023-07-19T12:16:39.984Z,2.20
2023-07-19T12:19:12.026Z,2.40
2023-07-19T12:21:41.673Z,2.20
2023-07-19T12:24:09.955Z,2.40
2023-07-19T12:26:38.608Z,2.30
2023-07-19T12:29:07.410Z,2.20
2023-07-19T12:31:35.938Z,2.30
2023-07-19T12:34:04.442Z,2.00
2023-07-19T12:36:32.728Z,2.00
2023-07-19T12:39:01.048Z,2.10
2023-07-19T12:41:31.109Z,1.90
2023-07-19T12:44:01.048Z,1.50
2023-07-19T12:46:29.557Z,1.70
2023-07-19T12:48:58.421Z,1.80
2023-07-19T12:51:26.900Z,1.50
2023-07-19T12:53:57.009Z,1.60
2023-07-19T12:56:25.661Z,1.60
2023-07-19T12:58:54.689Z,1.80
2023-07-19T13:01:23.392Z,1.60
2023-07-19T13:03:51.996Z,1.70
2023-07-19T13:06:20.559Z,1.60
2023-07-19T13:08:52.124Z,1.80
2023-07-19T13:11:21.951Z,1.80
2023-07-19T13:13:50.992Z,2.00
2023-07-19T13:16:19.740Z,1.70
2023-07-19T13:18:48.265Z,1.70
2023-07-19T13:21:18.967Z,1.60
2023-07-19T13:23:58.353Z,1.60
2023-07-19T13:26:27.100Z,1.50
2023-07-19T13:28:56.102Z,1.50
2023-07-19T13:31:25.468Z,1.80
2023-07-19T13:33:53.885Z,1.70
2023-07-19T13:38:53.468Z,1.40
2023-07-19T13:41:21.691Z,1.40
2023-07-19T13:43:51.105Z,1.30
2023-07-19T13:46:19.783Z,1.30
2023-07-19T13:48:48.690Z,1.60
2023-07-19T13:51:17.185Z,1.50
2023-07-19T13:53:45.507Z,1.40
2023-07-19T13:56:13.871Z,1.70
2023-07-19T13:58:43.732Z,1.70
2023-07-19T14:01:15.475Z,1.60
2023-07-19T14:03:44.128Z,1.60
2023-07-19T14:06:13.221Z,1.60
2023-07-19T14:08:41.613Z,1.50
2023-07-19T14:11:10.070Z,1.40
2023-07-19T14:13:38.504Z,1.30
2023-07-19T14:16:06.975Z,1.50
2023-07-19T14:18:36.050Z,1.50
2023-07-19T14:23:36.594Z,1.40
2023-07-19T14:26:05.984Z,1.50
2023-07-19T14:28:37.329Z,1.50
2023-07-19T14:31:06.149Z,1.60
2023-07-19T14:33:35.440Z,1.50
2023-07-19T14:36:07.175Z,1.60
2023-07-19T14:38:36.093Z,1.50
2023-07-19T14:41:07.617Z,1.30
2023-07-19T14:43:43.428Z,1.60
2023-07-19T14:46:12.172Z,1.30
2023-07-19T14:48:40.654Z,1.50
2023-07-19T14:51:09.093Z,1.30
2023-07-19T14:53:37.382Z,1.70
2023-07-19T14:56:05.762Z,1.50
2023-07-19T14:58:36.312Z,1.40
2023-07-19T15:01:13.055Z,1.50
2023-07-19T15:03:41.894Z,1.30
2023-07-19T15:06:10.885Z,1.80
2023-07-19T15:08:39.290Z,1.60
2023-07-19T15:11:08.929Z,1.70
2023-07-19T15:13:37.387Z,1.50
2023-07-19T15:16:07.179Z,1.20
2023-07-19T15:18:39.708Z,1.60
2023-07-19T15:21:08.550Z,1.30
2023-07-19T15:23:36.950Z,1.50
2023-07-19T15:26:05.344Z,1.40
2023-07-19T15:28:33.738Z,1.50
2023-07-19T15:31:05.103Z,1.70
2023-07-19T15:33:34.976Z,1.60
2023-07-19T15:36:03.410Z,1.30
2023-07-19T15:38:42.885Z,1.50
2023-07-19T15:43:43.381Z,1.50
2023-07-19T15:46:12.396Z,1.40
2023-07-19T15:48:40.776Z,1.30
2023-07-19T15:51:09.075Z,1.40
2023-07-19T15:53:38.310Z,1.50
2023-07-19T15:56:11.444Z,1.20
2023-07-19T15:58:40.205Z,1.40
2023-07-19T16:01:08.927Z,1.30
2023-07-19T16:03:37.642Z,1.40
2023-07-19T16:06:08.639Z,1.50
2023-07-19T16:08:38.065Z,1.40
2023-07-19T16:11:06.553Z,1.30
2023-07-19T16:13:35.020Z,1.30
2023-07-19T16:16:04.483Z,1.30
2023-07-19T16:21:01.079Z,1.30
2023-07-19T16:23:29.525Z,1.30
2023-07-19T16:25:57.924Z,1.20
2023-07-19T16:28:26.297Z,1.10
2023-07-19T16:30:54.939Z,1.20
2023-07-19T16:33:23.408Z,1.30
2023-07-19T16:35:52.071Z,1.30
2023-07-19T16:38:20.499Z,1.20
2023-07-19T16:40:49.060Z,1.30
2023-07-19T16:43:18.097Z,1.30
2023-07-19T16:45:46.465Z,1.30
2023-07-19T16:48:14.888Z,1.30
2023-07-19T16:50:43.344Z,1.20
2023-07-19T16:53:15.766Z,1.30
2023-07-19T16:55:45.866Z,1.20
2023-07-19T16:58:14.185Z,1.50
2023-07-19T17:00:43.134Z,1.20
2023-07-19T17:03:11.685Z,1.30
2023-07-19T17:05:40.123Z,0.90
2023-07-19T17:08:08.385Z,1.70
2023-07-19T17:10:37.264Z,1.10
2023-07-19T17:13:08.858Z,1.30
2023-07-19T17:15:38.421Z,1.30
2023-07-19T17:18:08.641Z,1.10
2023-07-19T17:20:37.710Z,1.20
2023-07-19T17:23:07.178Z,1.20
2023-07-19T17:25:35.846Z,1.00
2023-07-19T17:28:04.373Z,1.30
2023-07-19T17:30:33.046Z,1.30
2023-07-19T17:33:01.666Z,1.30
2023-07-19T17:35:30.301Z,1.20
2023-07-19T17:37:58.702Z,1.50
2023-07-19T17:40:27.067Z,1.30
2023-07-19T17:42:55.637Z,1.70
2023-07-19T17:45:24.132Z,1.40
2023-07-19T17:47:52.510Z,1.50
2023-07-19T17:50:20.961Z,1.20
2023-07-19T17:52:49.365Z,1.50
2023-07-19T17:55:17.848Z,1.20
2023-07-19T17:57:46.369Z,1.70
2023-07-19T18:00:15.059Z,1.20
2023-07-19T18:02:43.820Z,1.50
2023-07-19T18:05:12.284Z,1.50
2023-07-19T18:07:40.814Z,1.80
2023-07-19T18:10:09.708Z,1.80
2023-07-19T18:12:40.920Z,1.60
2023-07-19T18:15:10.510Z,1.80
2023-07-19T18:20:08.398Z,1.80
2023-07-19T18:22:37.436Z,1.80
2023-07-19T18:25:06.184Z,2.00
2023-07-19T18:27:34.597Z,1.90
2023-07-19T18:30:03.086Z,1.60
2023-07-19T18:32:31.668Z,1.90
2023-07-19T18:35:00.176Z,1.90
2023-07-19T18:37:28.692Z,2.30
2023-07-19T18:39:58.952Z,2.00
2023-07-19T18:42:27.330Z,2.00
2023-07-19T18:45:10.711Z,2.20
2023-07-19T18:48:24.936Z,2.00
2023-07-19T18:50:58.784Z,1.90
2023-07-19T18:57:31.272Z,1.70
2023-07-19T19:01:00.042Z,1.70
2023-07-19T19:03:30.499Z,1.80
2023-07-19T19:06:34.528Z,1.60
2023-07-19T19:09:15.636Z,1.50
2023-07-19T19:13:04.649Z,1.70
2023-07-19T19:15:56.618Z,1.70
2023-07-19T19:18:59.138Z,1.50
2023-07-19T19:29:29.053Z,1.60
2023-07-19T19:31:57.833Z,1.90
2023-07-19T19:34:44.951Z,1.50
2023-07-19T19:37:15.200Z,1.90
2023-07-19T19:40:21.392Z,1.80
2023-07-19T19:42:49.995Z,1.70
2023-07-19T19:45:18.523Z,1.60
2023-07-19T19:47:47.133Z,1.70
2023-07-19T19:50:15.819Z,2.00
2023-07-19T19:52:52.096Z,2.20
2023-07-19T19:55:48.978Z,2.10
2023-07-19T20:04:42.887Z,2.30
2023-07-19T20:07:12.122Z,2.30
2023-07-19T20:09:55.447Z,1.90
2023-07-19T20:12:30.171Z,2.10
2023-07-19T20:14:58.635Z,2.40
2023-07-19T20:17:41.304Z,2.10
2023-07-19T20:20:26.667Z,2.10
2023-07-19T20:23:09.857Z,2.20
2023-07-19T20:26:11.746Z,1.90
2023-07-19T20:28:47.987Z,2.30
2023-07-19T20:34:33.663Z,2.00
2023-07-19T20:41:40.427Z,2.30
2023-07-19T20:44:08.724Z,2.00
2023-07-19T20:49:14.281Z,3.50
2023-07-19T20:51:44.975Z,4.10
2023-07-19T20:54:15.351Z,3.90
2023-07-19T20:56:44.681Z,4.20
2023-07-19T20:59:14.987Z,3.90
2023-07-19T21:01:45.262Z,3.80
2023-07-19T21:04:17.977Z,4.40
2023-07-19T21:06:46.759Z,3.90
2023-07-19T21:09:16.562Z,4.10
2023-07-19T21:11:45.130Z,4.30
2023-07-19T21:14:14.171Z,4.20
2023-07-19T21:16:43.153Z,4.10
2023-07-19T21:19:11.529Z,4.20
2023-07-19T21:21:40.077Z,4.90
2023-07-19T21:24:08.628Z,4.50
2023-07-19T21:26:36.986Z,4.50
2023-07-19T21:29:06.126Z,4.30
2023-07-19T21:31:36.924Z,4.10
2023-07-19T21:34:05.874Z,4.30
2023-07-19T21:36:34.248Z,3.50
2023-07-19T21:39:02.576Z,3.80
2023-07-19T21:41:31.024Z,3.80
2023-07-19T21:44:00.935Z,3.70
2023-07-19T21:46:29.821Z,3.60
2023-07-19T21:48:58.181Z,3.90
2023-07-19T21:51:26.543Z,3.60
2023-07-19T21:53:55.033Z,3.70
2023-07-19T21:56:24.154Z,3.60
2023-07-19T21:59:03.899Z,3.40
2023-07-19T22:01:32.950Z,3.80
2023-07-19T22:04:01.664Z,3.00
2023-07-19T22:06:30.463Z,3.00
2023-07-19T22:08:58.904Z,3.10
2023-07-19T22:22:59.879Z,2.90
2023-07-19T22:25:28.225Z,3.00
2023-07-19T22:27:56.552Z,3.00
2023-07-19T22:30:24.906Z,3.10
2023-07-19T22:32:53.216Z,3.00
2023-07-19T22:35:21.992Z,2.60
2023-07-19T22:37:50.409Z,2.60
2023-07-19T22:40:21.959Z,2.80
2023-07-19T22:42:50.295Z,2.30
2023-07-19T22:45:18.898Z,2.70
2023-07-19T22:47:48.049Z,2.60
2023-07-19T22:50:16.833Z,2.40
2023-07-19T22:52:50.555Z,2.70
2023-07-19T22:55:23.823Z,3.10
2023-07-19T22:57:54.250Z,2.90
2023-07-19T23:00:26.489Z,2.90
2023-07-19T23:02:54.911Z,2.50
2023-07-19T23:05:23.562Z,2.70
2023-07-19T23:07:52.376Z,2.90
2023-07-19T23:10:22.066Z,2.90
2023-07-19T23:12:52.114Z,2.90
2023-07-19T23:15:23.497Z,2.80
2023-07-19T23:17:54.082Z,2.60
2023-07-19T23:20:22.670Z,2.40
2023-07-19T23:22:51.102Z,2.60
2023-07-19T23:25:19.736Z,2.60
2023-07-19T23:27:48.155Z,2.80
2023-07-19T23:30:16.653Z,2.70
2023-07-19T23:32:45.070Z,2.90
2023-07-19T23:35:13.464Z,2.90
2023-07-19T23:37:41.805Z,2.60
2023-07-19T23:40:10.648Z,3.00
2023-07-19T23:42:38.962Z,2.60
2023-07-19T23:45:08.426Z,2.80
2023-07-19T23:47:37.241Z,3.00
2023-07-19T23:50:06.466Z,3.00
2023-07-19T23:52:35.545Z,2.90
2023-07-19T23:55:05.123Z,3.20
2023-07-19T23:57:34.075Z,2.70
